Time;durP1;ratioP1;P1;durP2;ratioP2;P2;SDS_P1;SDS_P2;PMS_P1;PMS_P2;Temp;Humidity;BMP_temperature;BMP_pressure;BME280_temperature;BME280_humidity;BME280_pressure;Samples;Min_cycle;Max_cycle;Signal;HPM_P1;HPM_P2
2023/04/01 00:01:55;;;;;;;3.93;1.10;;;9.90;99.90;;;;;;4998199;28;20458;-83
2023/04/01 00:04:22;;;;;;;5.73;1.70;;;9.90;99.90;;;;;;4998724;28;20870;-83
2023/04/01 00:06:49;;;;;;;4.63;1.80;;;9.90;99.90;;;;;;4999119;28;20464;-83
2023/04/01 00:09:16;;;;;;;8.60;1.90;;;9.80;99.90;;;;;;4999702;28;20474;-84
2023/04/01 00:11:45;;;;;;;4.47;1.20;;;9.80;99.90;;;;;;4998580;28;20468;-84
2023/04/01 00:14:15;;;;;;;4.60;1.87;;;9.80;99.90;;;;;;5000027;28;20456;-83
2023/04/01 00:16:42;;;;;;;2.40;1.20;;;9.90;99.90;;;;;;4999910;28;20456;-81
2023/04/01 00:19:08;;;;;;;4.87;1.40;;;9.90;99.90;;;;;;5001014;28;20470;-81
2023/04/01 00:21:36;;;;;;;2.77;1.33;;;9.90;99.90;;;;;;5005360;28;20449;-83
2023/04/01 00:24:03;;;;;;;3.40;1.47;;;9.90;99.90;;;;;;5005697;28;20495;-84
2023/04/01 00:26:30;;;;;;;4.97;1.53;;;9.80;99.90;;;;;;5005381;28;21005;-82
2023/04/01 00:29:00;;;;;;;7.73;1.33;;;9.80;99.90;;;;;;5004545;28;20560;-84
2023/04/01 00:31:27;;;;;;;2.07;0.93;;;9.80;99.90;;;;;;5003923;28;20541;-84
2023/04/01 00:33:54;;;;;;;3.13;0.90;;;9.80;99.90;;;;;;4999154;28;20950;-82
2023/04/01 00:36:22;;;;;;;4.70;1.17;;;9.80;99.90;;;;;;4999151;28;20467;-83
2023/04/01 00:38:50;;;;;;;1.97;1.17;;;9.80;99.90;;;;;;4999539;28;20458;-84
2023/04/01 00:41:17;;;;;;;2.33;1.10;;;9.80;99.90;;;;;;4998240;28;20511;-83
2023/04/01 00:43:46;;;;;;;3.23;1.30;;;9.80;99.90;;;;;;4998353;28;20449;-82
2023/04/01 00:46:14;;;;;;;3.63;0.90;;;9.80;99.90;;;;;;4998708;28;20459;-84
2023/04/01 00:48:44;;;;;;;5.47;1.60;;;9.80;99.90;;;;;;4979233;28;20450;-83
2023/04/01 00:51:15;;;;;;;2.57;1.00;;;9.80;99.90;;;;;;4990885;28;20525;-82
2023/04/01 00:53:44;;;;;;;3.60;1.50;;;9.80;99.90;;;;;;5000790;28;20467;-84
2023/04/01 00:56:14;;;;;;;2.43;1.30;;;9.80;99.90;;;;;;5000676;28;20553;-82
2023/04/01 00:58:44;;;;;;;4.80;1.37;;;9.80;99.90;;;;;;5000708;28;20466;-85
2023/04/01 01:01:11;;;;;;;2.00;1.37;;;9.70;99.90;;;;;;5012474;28;20487;-81
2023/04/01 01:03:40;;;;;;;4.10;1.43;;;9.80;99.90;;;;;;5013296;28;20514;-83
2023/04/01 01:06:21;;;;;;;4.17;1.80;;;9.70;99.90;;;;;;5010500;28;20576;-82
2023/04/01 01:09:31;;;;;;;3.87;1.67;;;9.70;99.90;;;;;;4997566;28;20890;-82
2023/04/01 01:12:05;;;;;;;1.73;1.27;;;9.70;99.90;;;;;;4997169;28;20505;-85
2023/04/01 01:14:49;;;;;;;1.60;1.20;;;9.80;99.90;;;;;;4997518;28;20431;-85
2023/04/01 01:17:26;;;;;;;2.60;1.43;;;9.80;99.90;;;;;;4996301;28;20529;-83
2023/04/01 01:20:23;;;;;;;2.70;1.20;;;9.80;99.90;;;;;;4995970;28;20492;-84
2023/04/01 01:23:15;;;;;;;3.33;1.60;;;9.70;99.90;;;;;;4974290;28;20815;-83
2023/04/01 01:25:50;;;;;;;3.20;1.47;;;9.70;99.90;;;;;;4984611;28;20489;-82
2023/04/01 01:28:30;;;;;;;3.03;1.70;;;9.60;99.90;;;;;;4996138;28;20464;-82
2023/04/01 01:31:02;;;;;;;1.80;1.33;;;9.70;99.90;;;;;;4994706;28;20486;-82
2023/04/01 01:33:50;;;;;;;2.67;1.80;;;9.70;99.90;;;;;;4995629;28;20972;-83
2023/04/01 01:36:21;;;;;;;1.67;1.30;;;9.70;99.90;;;;;;4995740;28;20536;-83
2023/04/01 01:38:49;;;;;;;2.30;1.47;;;9.70;99.90;;;;;;4996366;28;20503;-84
2023/04/01 01:41:18;;;;;;;4.60;1.87;;;9.70;99.90;;;;;;4995399;28;20464;-82
2023/04/01 01:43:48;;;;;;;2.57;1.30;;;9.70;99.90;;;;;;4996619;28;20460;-82
2023/04/01 01:46:18;;;;;;;2.37;1.40;;;9.80;99.90;;;;;;4995481;28;20843;-82
2023/04/01 01:48:46;;;;;;;3.50;1.20;;;9.80;99.90;;;;;;4995784;28;20453;-81
2023/04/01 01:51:13;;;;;;;2.90;1.20;;;9.70;99.90;;;;;;4994586;28;20449;-81
2023/04/01 01:53:41;;;;;;;6.03;1.40;;;9.70;99.90;;;;;;4996051;28;20956;-81
2023/04/01 01:56:08;;;;;;;2.60;1.40;;;9.70;99.90;;;;;;4995723;28;20450;-81
2023/04/01 01:58:40;;;;;;;4.33;1.00;;;9.70;99.90;;;;;;4995416;28;20885;-82
2023/04/01 02:01:11;;;;;;;1.43;1.00;;;9.70;99.90;;;;;;4994524;28;20459;-81
2023/04/01 02:03:40;;;;;;;2.47;1.43;;;9.70;99.90;;;;;;4997871;28;20460;-82
2023/04/01 02:06:10;;;;;;;2.60;1.30;;;9.70;99.90;;;;;;4995963;28;20573;-84
2023/04/01 02:08:42;;;;;;;4.20;1.50;;;9.70;99.90;;;;;;4994869;28;20551;-83
2023/04/01 02:11:11;;;;;;;3.50;1.07;;;9.70;99.90;;;;;;4993940;28;20470;-84
2023/04/01 02:13:43;;;;;;;2.43;1.10;;;9.70;99.90;;;;;;4994553;28;20550;-82
2023/04/01 02:16:14;;;;;;;2.37;1.00;;;9.70;99.90;;;;;;4998146;28;20446;-84
2023/04/01 02:18:43;;;;;;;2.30;1.03;;;9.70;99.90;;;;;;4998732;28;20463;-81
2023/04/01 02:21:10;;;;;;;2.00;1.00;;;9.60;99.90;;;;;;4996705;28;20483;-83
2023/04/01 02:23:38;;;;;;;2.13;1.10;;;9.60;99.90;;;;;;4998424;28;20981;-84
2023/04/01 02:26:08;;;;;;;1.70;1.43;;;9.60;99.90;;;;;;4996386;28;20484;-81
2023/04/01 02:28:37;;;;;;;3.40;1.50;;;9.60;99.90;;;;;;4998326;28;20460;-81
2023/04/01 02:31:04;;;;;;;1.40;0.90;;;9.60;99.90;;;;;;4997657;28;20619;-81
2023/04/01 02:33:32;;;;;;;1.83;0.80;;;9.60;99.90;;;;;;4998279;28;20467;-80
2023/04/01 02:35:59;;;;;;;2.50;1.00;;;9.60;99.90;;;;;;4997873;28;20547;-81
2023/04/01 02:38:27;;;;;;;3.23;0.97;;;9.60;99.90;;;;;;4997455;28;20511;-81
2023/04/01 02:41:00;;;;;;;4.07;1.00;;;9.60;99.90;;;;;;4997697;28;20935;-82
2023/04/01 02:43:29;;;;;;;4.20;1.00;;;9.60;99.90;;;;;;4998235;28;20799;-83
2023/04/01 02:45:56;;;;;;;2.30;0.93;;;9.60;99.90;;;;;;4998484;28;20500;-81
2023/04/01 02:48:22;;;;;;;2.07;1.20;;;9.60;99.90;;;;;;4997466;28;20470;-82
2023/04/01 02:50:49;;;;;;;2.47;1.00;;;9.60;99.90;;;;;;4997063;28;20474;-81
2023/04/01 02:53:16;;;;;;;1.70;0.80;;;9.50;99.90;;;;;;4997716;28;20456;-82
2023/04/01 02:55:44;;;;;;;1.80;1.00;;;9.60;99.90;;;;;;4998247;28;20453;-83
2023/04/01 02:58:11;;;;;;;1.80;1.00;;;9.60;99.90;;;;;;4998489;28;20460;-81
2023/04/01 03:00:39;;;;;;;2.67;1.30;;;9.60;99.90;;;;;;4997062;28;20475;-81
2023/04/01 03:03:06;;;;;;;1.40;1.00;;;9.50;99.90;;;;;;4997440;28;20457;-84
2023/04/01 03:05:33;;;;;;;2.73;1.20;;;9.50;99.90;;;;;;4997690;28;20592;-81
2023/04/01 03:08:00;;;;;;;3.10;0.90;;;9.50;99.90;;;;;;4997911;28;20891;-81
2023/04/01 03:10:26;;;;;;;3.00;1.23;;;9.50;99.90;;;;;;4998095;28;20857;-81
2023/04/01 03:12:53;;;;;;;1.50;1.00;;;9.50;99.90;;;;;;4997397;28;20461;-82
2023/04/01 03:15:20;;;;;;;3.13;1.57;;;9.60;99.90;;;;;;4999165;28;20517;-81
2023/04/01 03:17:48;;;;;;;2.40;1.20;;;9.60;99.90;;;;;;4997735;28;20557;-82
2023/04/01 03:20:15;;;;;;;4.20;1.47;;;9.60;99.90;;;;;;4997480;28;20473;-81
2023/04/01 03:22:42;;;;;;;2.73;1.07;;;9.60;99.90;;;;;;4997054;28;22277;-81
2023/04/01 03:25:11;;;;;;;2.80;1.20;;;9.60;99.90;;;;;;4984363;28;20856;-82
2023/04/01 03:27:38;;;;;;;1.70;0.97;;;9.60;99.90;;;;;;4997958;28;20835;-83
2023/04/01 03:30:07;;;;;;;1.80;1.10;;;9.60;99.90;;;;;;4997166;28;20482;-82
2023/04/01 03:32:34;;;;;;;3.50;1.10;;;9.60;99.90;;;;;;4994994;28;20476;-82
2023/04/01 03:35:02;;;;;;;5.53;1.93;;;9.60;99.90;;;;;;4998381;28;20454;-82
2023/04/01 03:37:29;;;;;;;10.77;1.20;;;9.60;99.90;;;;;;4998809;28;20461;-83
2023/04/01 03:39:55;;;;;;;3.30;1.20;;;9.70;99.90;;;;;;4997345;28;20487;-81
2023/04/01 03:42:22;;;;;;;1.80;1.07;;;9.80;99.90;;;;;;4996976;28;21177;-81
2023/04/01 03:44:49;;;;;;;1.80;1.10;;;9.70;99.90;;;;;;4978844;28;20447;-84
2023/04/01 03:47:16;;;;;;;2.80;1.20;;;9.70;99.90;;;;;;4993504;28;20495;-83
2023/04/01 03:49:43;;;;;;;2.17;1.40;;;9.70;99.90;;;;;;4998129;28;20481;-84
2023/04/01 03:52:12;;;;;;;2.73;1.17;;;9.70;99.90;;;;;;4997955;28;20459;-81
2023/04/01 03:54:38;;;;;;;2.07;1.10;;;9.70;99.90;;;;;;4998555;28;20464;-81
2023/04/01 03:57:05;;;;;;;1.83;1.10;;;9.60;99.90;;;;;;4996841;28;20456;-82
2023/04/01 03:59:32;;;;;;;1.60;0.90;;;9.70;99.90;;;;;;4998129;28;20490;-82
2023/04/01 04:01:59;;;;;;;2.70;1.17;;;9.70;99.90;;;;;;4997582;28;20462;-82
2023/04/01 04:04:26;;;;;;;1.90;1.20;;;9.70;99.90;;;;;;4999043;28;21038;-83
2023/04/01 04:06:54;;;;;;;1.60;0.80;;;9.60;99.90;;;;;;4998522;28;20597;-83
2023/04/01 04:09:22;;;;;;;1.90;0.80;;;9.60;99.90;;;;;;4998780;28;21013;-82
2023/04/01 04:11:50;;;;;;;4.97;1.87;;;9.70;99.90;;;;;;4997027;28;20462;-81
2023/04/01 04:14:16;;;;;;;2.40;1.00;;;9.70;99.90;;;;;;4998541;28;20459;-83
2023/04/01 04:16:43;;;;;;;2.30;1.07;;;9.70;99.90;;;;;;4998567;28;20892;-83
2023/04/01 04:19:10;;;;;;;2.17;1.27;;;9.70;99.90;;;;;;4998726;28;20484;-82
2023/04/01 04:21:37;;;;;;;3.10;1.53;;;9.60;99.90;;;;;;4997964;28;20457;-84
2023/04/01 04:24:04;;;;;;;3.90;1.30;;;9.60;99.90;;;;;;4998819;28;20449;-83
2023/04/01 04:26:32;;;;;;;2.17;1.30;;;9.60;99.90;;;;;;4996886;28;20480;-83
2023/04/01 04:28:59;;;;;;;2.10;1.10;;;9.70;99.90;;;;;;4998732;28;20475;-84
2023/04/01 04:31:27;;;;;;;1.80;1.13;;;9.60;99.90;;;;;;4998600;28;20456;-83
2023/04/01 04:33:54;;;;;;;1.90;1.20;;;9.70;99.90;;;;;;4997978;28;20456;-83
2023/04/01 04:36:22;;;;;;;1.80;1.20;;;9.70;99.90;;;;;;4996769;28;20456;-84
2023/04/01 04:38:49;;;;;;;1.30;0.80;;;9.70;99.90;;;;;;4994569;28;20477;-82
2023/04/01 04:41:18;;;;;;;2.57;1.00;;;9.70;99.90;;;;;;4997231;28;20466;-83
2023/04/01 04:43:52;;;;;;;2.10;1.07;;;9.60;99.90;;;;;;4999004;28;20449;-83
2023/04/01 04:46:20;;;;;;;2.00;1.50;;;9.60;99.90;;;;;;5010200;28;20551;-84
2023/04/01 04:48:47;;;;;;;1.83;1.00;;;9.60;99.90;;;;;;5010355;28;20456;-80
2023/04/01 04:51:15;;;;;;;1.90;1.30;;;9.60;99.90;;;;;;5006803;28;20558;-82
2023/04/01 04:53:42;;;;;;;1.77;1.13;;;9.60;99.90;;;;;;4997324;28;21015;-83
2023/04/01 04:56:09;;;;;;;2.43;1.17;;;9.60;99.90;;;;;;4997246;28;20456;-81
2023/04/01 04:58:36;;;;;;;1.50;0.90;;;9.60;99.90;;;;;;4997111;28;20478;-81
2023/04/01 05:01:09;;;;;;;4.03;1.03;;;9.70;99.90;;;;;;4994240;28;20463;-82
2023/04/01 05:03:36;;;;;;;3.97;1.30;;;9.60;99.90;;;;;;4995912;28;20535;-81
2023/04/01 05:06:02;;;;;;;1.60;1.20;;;9.60;99.90;;;;;;4995354;28;20489;-84
2023/04/01 05:08:29;;;;;;;1.60;0.97;;;9.60;99.90;;;;;;4995751;28;20456;-82
2023/04/01 05:10:57;;;;;;;1.57;0.83;;;9.70;99.90;;;;;;4995100;28;20567;-83
2023/04/01 05:13:23;;;;;;;1.63;1.40;;;9.60;99.90;;;;;;4997151;28;20466;-82
2023/04/01 05:15:50;;;;;;;1.80;1.20;;;9.70;99.90;;;;;;4996421;28;20454;-84
2023/04/01 05:18:18;;;;;;;1.50;0.97;;;9.60;99.90;;;;;;4996060;28;20957;-86
2023/04/01 05:20:49;;;;;;;1.40;1.00;;;9.70;99.90;;;;;;4994854;28;20494;-85
2023/04/01 05:23:16;;;;;;;2.27;1.23;;;9.70;99.90;;;;;;4996487;28;21058;-85
2023/04/01 05:25:44;;;;;;;1.50;0.83;;;9.70;99.90;;;;;;4997065;28;20485;-86
2023/04/01 05:28:11;;;;;;;2.00;1.40;;;9.70;99.90;;;;;;4996526;28;20496;-82
2023/04/01 05:30:40;;;;;;;2.37;1.10;;;9.70;99.90;;;;;;4993803;28;20478;-80
2023/04/01 05:33:07;;;;;;;1.77;1.00;;;9.80;99.90;;;;;;4998484;28;20506;-81
2023/04/01 05:35:36;;;;;;;5.10;1.20;;;9.80;99.90;;;;;;4996514;28;20449;-81
2023/04/01 05:38:03;;;;;;;1.87;1.07;;;9.80;99.90;;;;;;4998684;28;20457;-82
2023/04/01 05:40:33;;;;;;;1.90;1.53;;;9.80;99.90;;;;;;4998714;28;20481;-85
2023/04/01 05:43:00;;;;;;;2.23;1.27;;;9.80;99.90;;;;;;4983838;28;20461;-84
2023/04/01 05:45:27;;;;;;;1.70;1.10;;;9.80;99.90;;;;;;4998716;28;20516;-84
2023/04/01 05:47:55;;;;;;;5.60;3.80;;;9.90;99.90;;;;;;4997366;28;21015;-81
2023/04/01 05:50:22;;;;;;;1.80;1.20;;;9.90;99.90;;;;;;4998793;28;20485;-83
2023/04/01 05:52:50;;;;;;;1.70;1.17;;;9.90;99.90;;;;;;5004781;28;20441;-85
2023/04/01 05:55:17;;;;;;;2.30;1.50;;;9.80;99.90;;;;;;5014463;28;20517;-85
2023/04/01 05:57:45;;;;;;;2.00;1.13;;;9.80;99.90;;;;;;5010598;28;20473;-84
2023/04/01 06:00:14;;;;;;;2.57;1.53;;;9.90;99.90;;;;;;5010805;28;20546;-85
2023/04/01 06:02:41;;;;;;;3.93;1.80;;;9.90;99.90;;;;;;5001629;28;20464;-85
2023/04/01 06:05:17;;;;;;;2.10;1.70;;;9.90;99.90;;;;;;5005263;28;20460;-85
2023/04/01 06:07:44;;;;;;;3.17;1.50;;;9.90;99.90;;;;;;5004139;28;20456;-85
2023/04/01 06:10:17;;;;;;;4.10;1.70;;;9.90;99.90;;;;;;5004210;28;20844;-85
2023/04/01 06:12:57;;;;;;;2.50;1.40;;;9.90;99.90;;;;;;5002667;28;20512;-85
2023/04/01 06:15:35;;;;;;;2.23;1.30;;;9.90;99.90;;;;;;5003423;28;20535;-84
2023/04/01 06:18:38;;;;;;;1.97;1.50;;;9.90;99.90;;;;;;4991747;28;20512;-86
2023/04/01 06:21:21;;;;;;;2.73;1.70;;;9.90;99.90;;;;;;5002948;28;20488;-86
2023/04/01 06:23:59;;;;;;;1.83;1.20;;;10.00;99.90;;;;;;4986475;28;20453;-84
2023/04/01 06:26:36;;;;;;;2.00;1.00;;;10.10;99.90;;;;;;5002515;28;20509;-84
2023/04/01 06:29:41;;;;;;;3.10;1.40;;;10.00;99.90;;;;;;4999073;28;20479;-84
2023/04/01 06:32:31;;;;;;;1.80;1.33;;;10.00;99.90;;;;;;5001980;28;20466;-84
2023/04/01 06:35:09;;;;;;;1.90;1.37;;;9.90;99.90;;;;;;4998516;28;20461;-84
2023/04/01 06:37:55;;;;;;;2.40;1.90;;;10.00;99.90;;;;;;5004174;28;20833;-84
2023/04/01 06:40:55;;;;;;;2.53;1.57;;;10.00;99.90;;;;;;5002646;28;20489;-83
2023/04/01 06:43:34;;;;;;;2.37;1.50;;;10.00;99.90;;;;;;4959957;28;20540;-85
2023/04/01 06:46:10;;;;;;;2.30;1.43;;;10.10;99.90;;;;;;5002180;28;20565;-86
2023/04/01 06:48:54;;;;;;;2.77;1.60;;;10.10;99.90;;;;;;5003962;28;20488;-83
2023/04/01 06:51:32;;;;;;;2.37;1.57;;;10.10;99.90;;;;;;4989519;28;20509;-83
2023/04/01 06:54:05;;;;;;;2.77;1.40;;;10.10;99.90;;;;;;4982499;28;20438;-84
2023/04/01 06:56:35;;;;;;;3.10;2.00;;;10.00;99.90;;;;;;4999735;28;20443;-85
2023/04/01 06:59:06;;;;;;;2.53;1.63;;;10.00;99.90;;;;;;4998411;28;20599;-84
2023/04/01 07:01:36;;;;;;;1.80;1.40;;;9.90;99.90;;;;;;5002736;28;20463;-85
2023/04/01 07:04:07;;;;;;;2.10;1.50;;;10.00;99.90;;;;;;5002710;28;20464;-84
2023/04/01 07:06:38;;;;;;;3.20;1.37;;;10.00;99.90;;;;;;5000384;28;20542;-84
2023/04/01 07:09:10;;;;;;;2.47;2.17;;;10.00;99.90;;;;;;5002988;28;20481;-84
2023/04/01 07:11:39;;;;;;;1.90;1.60;;;9.90;99.90;;;;;;4993896;28;20466;-84
2023/04/01 07:14:15;;;;;;;2.00;1.40;;;9.90;99.90;;;;;;5001219;28;20465;-86
2023/04/01 07:16:47;;;;;;;1.93;1.53;;;10.00;99.90;;;;;;5003863;28;20456;-86
2023/04/01 07:19:19;;;;;;;2.70;1.30;;;10.00;99.90;;;;;;5003372;28;20560;-84
2023/04/01 07:21:50;;;;;;;2.60;1.90;;;10.10;99.90;;;;;;5002493;28;20456;-84
2023/04/01 07:24:25;;;;;;;2.13;1.50;;;10.20;99.90;;;;;;5002765;28;20919;-83
2023/04/01 07:26:55;;;;;;;3.10;1.90;;;10.20;99.90;;;;;;4997029;28;20495;-84
2023/04/01 07:29:24;;;;;;;1.90;1.40;;;10.20;99.90;;;;;;5003926;28;20476;-84
2023/04/01 07:32:08;;;;;;;3.23;2.00;;;10.20;99.90;;;;;;5002374;28;20764;-84
2023/04/01 07:34:41;;;;;;;3.20;1.83;;;10.20;99.90;;;;;;5002470;28;20969;-84
2023/04/01 07:37:13;;;;;;;2.00;1.60;;;10.10;99.90;;;;;;5001360;28;20925;-84
2023/04/01 07:39:52;;;;;;;2.00;1.40;;;10.20;99.90;;;;;;5003225;28;20476;-84
2023/04/01 07:42:28;;;;;;;2.20;1.50;;;10.30;99.90;;;;;;5001559;28;20453;-86
2023/04/01 07:45:04;;;;;;;4.73;2.00;;;10.40;99.90;;;;;;4990188;28;21001;-83
2023/04/01 07:47:42;;;;;;;3.43;1.70;;;10.40;99.90;;;;;;5001765;28;20513;-84
2023/04/01 07:50:20;;;;;;;7.77;1.67;;;10.40;99.90;;;;;;5003854;28;20554;-85
2023/04/01 07:52:57;;;;;;;1.90;1.50;;;10.30;99.90;;;;;;4988240;28;20436;-83
2023/04/01 07:55:30;;;;;;;2.43;1.93;;;10.40;99.90;;;;;;5001572;28;20451;-82
2023/04/01 07:58:03;;;;;;;1.90;1.70;;;10.40;99.90;;;;;;5001342;28;20446;-84
2023/04/01 08:00:37;;;;;;;2.33;1.90;;;10.40;99.90;;;;;;4999810;28;20541;-83
2023/04/01 08:03:18;;;;;;;2.60;1.90;;;10.40;99.90;;;;;;5004444;28;20498;-84
2023/04/01 08:05:54;;;;;;;5.67;3.40;;;10.50;99.90;;;;;;4998169;28;20462;-84
2023/04/01 08:08:33;;;;;;;3.17;1.80;;;10.60;99.90;;;;;;5005659;28;20450;-85
2023/04/01 08:11:09;;;;;;;3.03;1.93;;;10.70;99.90;;;;;;5001879;28;20915;-83
2023/04/01 08:13:42;;;;;;;2.37;2.00;;;10.60;99.90;;;;;;4985225;28;20556;-83
2023/04/01 08:16:16;;;;;;;3.73;2.27;;;10.60;99.90;;;;;;5000133;28;20917;-83
2023/04/01 08:18:54;;;;;;;3.17;2.47;;;10.60;99.90;;;;;;4998231;28;20463;-84
2023/04/01 08:21:25;;;;;;;3.60;2.53;;;10.60;99.90;;;;;;5000867;28;20461;-84
2023/04/01 08:23:55;;;;;;;4.93;3.07;;;10.50;99.90;;;;;;5002339;28;20535;-84
2023/04/01 08:26:31;;;;;;;2.53;2.10;;;10.60;99.90;;;;;;5003887;28;20494;-84
2023/04/01 08:29:02;;;;;;;4.17;3.40;;;10.80;99.90;;;;;;5002517;28;20478;-84
2023/04/01 08:31:34;;;;;;;6.23;3.10;;;10.60;99.90;;;;;;5000734;28;20858;-83
2023/04/01 08:34:05;;;;;;;3.80;3.37;;;10.60;99.90;;;;;;5003620;28;20821;-84
2023/04/01 08:36:36;;;;;;;4.07;3.27;;;10.70;99.90;;;;;;5003690;28;20447;-83
2023/04/01 08:39:09;;;;;;;4.23;3.83;;;10.70;99.90;;;;;;4983515;28;20547;-83
2023/04/01 08:41:55;;;;;;;8.13;4.20;;;10.70;99.90;;;;;;4994764;28;20457;-83
2023/04/01 08:44:46;;;;;;;4.03;3.40;;;10.70;99.90;;;;;;5003785;28;20493;-84
2023/04/01 08:47:49;;;;;;;4.77;4.27;;;10.70;99.90;;;;;;5001574;28;20548;-83
2023/04/01 08:50:54;;;;;;;6.33;4.90;;;10.60;99.90;;;;;;4970980;28;20873;-83
2023/04/01 08:53:31;;;;;;;7.00;5.60;;;10.50;99.90;;;;;;4998465;28;20484;-81
2023/04/01 08:56:13;;;;;;;5.67;5.07;;;10.50;99.90;;;;;;4989490;28;20436;-81
2023/04/01 08:59:07;;;;;;;6.73;5.10;;;10.50;99.90;;;;;;4991040;28;20475;-84
2023/04/01 09:01:51;;;;;;;8.67;5.70;;;10.50;99.90;;;;;;4989953;28;20446;-81
2023/04/01 09:04:31;;;;;;;7.70;6.63;;;10.50;99.90;;;;;;4995908;28;20462;-82
2023/04/01 09:07:10;;;;;;;7.27;6.03;;;10.50;99.90;;;;;;4996315;28;20874;-82
2023/04/01 09:10:07;;;;;;;6.80;5.77;;;10.40;99.90;;;;;;4995191;28;20490;-81
2023/04/01 09:12:57;;;;;;;5.63;4.40;;;10.40;99.90;;;;;;4970865;28;20470;-81
2023/04/01 09:15:43;;;;;;;6.60;4.93;;;10.40;99.90;;;;;;4995787;28;20459;-82
2023/04/01 09:18:50;;;;;;;5.57;5.03;;;10.30;99.90;;;;;;4996765;28;20445;-81
2023/04/01 09:21:32;;;;;;;6.77;5.17;;;10.40;99.90;;;;;;4994336;28;20849;-81
2023/04/01 09:24:50;;;;;;;8.33;6.37;;;10.30;99.90;;;;;;4976067;28;20462;-81
2023/04/01 09:27:28;;;;;;;10.30;5.60;;;10.30;99.90;;;;;;4980565;28;20490;-81
2023/04/01 09:30:24;;;;;;;8.27;6.03;;;10.40;99.90;;;;;;4993578;28;20548;-82
2023/04/01 09:33:17;;;;;;;8.83;6.10;;;10.30;99.90;;;;;;4988033;28;20470;-82
2023/04/01 09:35:48;;;;;;;7.87;5.37;;;10.40;99.90;;;;;;4991184;28;20452;-81
2023/04/01 09:38:23;;;;;;;6.73;6.03;;;10.40;99.90;;;;;;4994591;28;20450;-82
2023/04/01 09:40:57;;;;;;;7.00;6.10;;;10.50;99.90;;;;;;4989106;28;20473;-82
2023/04/01 09:43:30;;;;;;;8.90;7.03;;;10.60;99.90;;;;;;4992136;28;20492;-82
2023/04/01 09:46:13;;;;;;;8.70;6.90;;;10.60;99.90;;;;;;4995844;28;20521;-82
2023/04/01 09:48:57;;;;;;;11.60;8.50;;;10.60;99.90;;;;;;4995827;28;20564;-82
2023/04/01 09:51:32;;;;;;;8.70;7.47;;;10.70;99.90;;;;;;4991076;28;20453;-82
2023/04/01 09:54:14;;;;;;;8.80;7.27;;;10.80;99.90;;;;;;4995785;28;20458;-83
2023/04/01 09:57:07;;;;;;;9.20;6.97;;;11.00;99.90;;;;;;4994827;28;20467;-82
2023/04/01 09:59:59;;;;;;;10.33;7.90;;;11.10;99.90;;;;;;4993458;28;20851;-81
2023/04/01 10:03:05;;;;;;;8.53;7.63;;;11.10;99.90;;;;;;4990329;28;20466;-82
2023/04/01 10:06:00;;;;;;;10.37;7.60;;;11.10;99.90;;;;;;4983200;28;20853;-82
2023/04/01 10:08:51;;;;;;;8.60;6.80;;;11.10;99.90;;;;;;4992592;28;20478;-81
2023/04/01 10:11:48;;;;;;;9.90;7.10;;;11.10;99.90;;;;;;4990969;28;20447;-82
2023/04/01 10:14:38;;;;;;;7.13;6.43;;;11.10;99.90;;;;;;4993312;28;20482;-82
2023/04/01 10:17:41;;;;;;;8.30;7.20;;;11.10;99.90;;;;;;4992603;28;20439;-82
2023/04/01 10:20:43;;;;;;;8.53;7.63;;;11.00;99.90;;;;;;4990576;28;20493;-81
2023/04/01 10:23:28;;;;;;;7.90;6.93;;;10.90;99.90;;;;;;4991760;28;20450;-81
2023/04/01 10:26:29;;;;;;;8.43;7.53;;;11.00;99.90;;;;;;4995453;28;20437;-83
2023/04/01 10:29:24;;;;;;;11.40;8.27;;;11.00;99.90;;;;;;4998673;28;20493;-83
2023/04/01 10:32:30;;;;;;;8.60;7.57;;;11.00;99.90;;;;;;4995564;28;20458;-82
2023/04/01 10:35:44;;;;;;;8.47;7.13;;;11.10;99.90;;;;;;4997548;28;20496;-82
2023/04/01 10:38:47;;;;;;;9.37;8.40;;;10.90;99.90;;;;;;4959734;29;20856;-81
2023/04/01 10:41:45;;;;;;;13.00;9.37;;;11.00;99.90;;;;;;5002176;28;20445;-82
2023/04/01 10:45:01;;;;;;;8.90;7.80;;;10.90;99.90;;;;;;4998402;28;20451;-82
2023/04/01 10:48:00;;;;;;;13.57;9.47;;;11.10;99.90;;;;;;5001319;28;20502;-83
2023/04/01 10:50:52;;;;;;;20.73;13.63;;;11.30;99.90;;;;;;4969310;28;20857;-83
2023/04/01 10:53:39;;;;;;;9.87;7.60;;;11.30;99.90;;;;;;5000607;28;20466;-83
2023/04/01 10:56:33;;;;;;;11.13;9.60;;;11.30;99.90;;;;;;5000180;28;20447;-83
2023/04/01 10:59:28;;;;;;;7.10;6.40;;;11.20;99.90;;;;;;4998050;28;20471;-82
2023/04/01 11:02:35;;;;;;;7.10;6.10;;;11.10;99.90;;;;;;4981624;28;20459;-82
2023/04/01 11:05:40;;;;;;;9.30;7.37;;;11.20;99.90;;;;;;4996524;28;20970;-82
2023/04/01 11:08:40;;;;;;;5.90;5.33;;;11.20;99.90;;;;;;4997145;28;20561;-82
2023/04/01 11:11:40;;;;;;;7.30;6.40;;;11.10;99.90;;;;;;4995339;28;20497;-81
2023/04/01 11:14:40;;;;;;;7.47;6.60;;;11.10;99.90;;;;;;4991756;28;20452;-81
2023/04/01 11:17:44;;;;;;;7.77;6.20;;;11.10;99.90;;;;;;4994663;28;20465;-82
2023/04/01 11:20:42;;;;;;;8.40;6.63;;;11.10;99.90;;;;;;4997819;28;20482;-81
2023/04/01 11:23:30;;;;;;;8.57;7.13;;;11.20;99.90;;;;;;4998504;28;20463;-82
2023/04/01 11:26:04;;;;;;;6.70;5.63;;;11.20;99.90;;;;;;4997895;28;20455;-82
2023/04/01 11:28:56;;;;;;;10.37;8.00;;;11.20;99.90;;;;;;4997832;28;20498;-82
2023/04/01 11:31:36;;;;;;;8.37;6.90;;;11.20;99.90;;;;;;4982055;28;20432;-81
2023/04/01 11:34:13;;;;;;;7.40;6.70;;;11.20;99.90;;;;;;5000831;28;20462;-82
2023/04/01 11:36:51;;;;;;;8.27;7.00;;;11.10;99.90;;;;;;4997942;28;20458;-82
2023/04/01 11:39:26;;;;;;;11.33;7.60;;;11.10;99.90;;;;;;5000687;28;20487;-81
2023/04/01 11:42:04;;;;;;;10.23;7.63;;;11.10;99.90;;;;;;4996300;28;20456;-82
2023/04/01 11:44:35;;;;;;;8.10;7.23;;;11.20;99.90;;;;;;4989364;28;20529;-82
2023/04/01 11:47:25;;;;;;;11.20;7.20;;;11.20;99.90;;;;;;4997335;28;20482;-82
2023/04/01 11:50:05;;;;;;;9.23;8.10;;;11.20;99.90;;;;;;4979622;28;20483;-81
2023/04/01 11:52:47;;;;;;;8.90;7.43;;;11.20;99.90;;;;;;4986289;28;20541;-82
2023/04/01 11:55:24;;;;;;;8.83;6.70;;;11.30;99.90;;;;;;4998719;28;20967;-83
2023/04/01 11:58:06;;;;;;;9.60;7.23;;;11.40;99.90;;;;;;5001712;28;20448;-83
2023/04/01 12:01:03;;;;;;;9.53;6.83;;;11.50;99.90;;;;;;5006331;28;20560;-83
2023/04/01 12:03:52;;;;;;;6.97;5.77;;;11.60;99.90;;;;;;5008956;28;20463;-84
2023/04/01 12:06:26;;;;;;;7.20;6.50;;;11.60;99.90;;;;;;5008939;28;20455;-82
2023/04/01 12:09:02;;;;;;;6.47;5.57;;;11.50;99.90;;;;;;4992514;28;21014;-81
2023/04/01 12:11:36;;;;;;;7.70;5.77;;;11.40;99.90;;;;;;5002623;28;20457;-81
2023/04/01 12:14:14;;;;;;;6.40;5.80;;;11.30;99.90;;;;;;4995089;28;20461;-81
2023/04/01 12:16:52;;;;;;;7.37;6.07;;;11.20;99.90;;;;;;5003905;28;20461;-82
2023/04/01 12:19:26;;;;;;;8.80;6.70;;;11.30;99.90;;;;;;5000766;28;20836;-81
2023/04/01 12:22:07;;;;;;;7.90;6.60;;;11.20;99.90;;;;;;4978472;28;20546;-82
2023/04/01 12:24:48;;;;;;;9.00;6.47;;;11.20;99.90;;;;;;4992052;28;20447;-81
2023/04/01 12:27:27;;;;;;;10.60;7.30;;;11.20;99.90;;;;;;4994874;28;20455;-82
2023/04/01 12:30:31;;;;;;;8.30;7.50;;;11.30;99.90;;;;;;4996575;28;20872;-83
2023/04/01 12:33:17;;;;;;;9.57;8.20;;;11.30;99.90;;;;;;5017590;23;20505;-81
2023/04/01 12:35:55;;;;;;;12.47;9.30;;;11.20;99.90;;;;;;5031060;28;20458;-82
2023/04/01 12:38:32;;;;;;;9.23;8.23;;;11.20;99.90;;;;;;5043639;28;20956;-83
2023/04/01 12:41:10;;;;;;;8.87;7.80;;;11.20;99.90;;;;;;5042028;28;20476;-82
2023/04/01 12:44:09;;;;;;;9.50;8.00;;;11.30;99.90;;;;;;5028843;28;20527;-82
2023/04/01 12:46:51;;;;;;;10.37;9.33;;;11.40;99.90;;;;;;4999214;28;20465;-81
2023/04/01 12:49:40;;;;;;;11.77;8.20;;;11.70;99.90;;;;;;5047367;28;20564;-83
2023/04/01 12:52:11;;;;;;;8.83;7.90;;;12.00;99.90;;;;;;5041784;28;21744;-81
2023/04/01 12:55:10;;;;;;;10.17;8.17;;;12.20;99.90;;;;;;5039606;28;20532;-81
2023/04/01 12:58:07;;;;;;;8.47;7.57;;;12.20;99.90;;;;;;5038799;28;20460;-82
2023/04/01 13:00:57;;;;;;;9.30;8.07;;;12.20;99.90;;;;;;5034744;28;20516;-82
2023/04/01 13:03:45;;;;;;;10.20;8.00;;;12.00;99.90;;;;;;5029994;28;20482;-81
2023/04/01 13:06:33;;;;;;;10.73;7.83;;;11.90;99.90;;;;;;5041063;28;20823;-80
2023/04/01 13:09:16;;;;;;;10.27;8.97;;;11.80;99.90;;;;;;5031016;28;20509;-81
2023/04/01 13:11:53;;;;;;;9.07;8.17;;;11.60;99.90;;;;;;5041515;28;20448;-81
2023/04/01 13:14:38;;;;;;;9.77;8.73;;;11.60;99.90;;;;;;5042272;28;20984;-81
2023/04/01 13:17:13;;;;;;;9.53;8.10;;;11.50;99.90;;;;;;5040401;28;20520;-82
2023/04/01 13:19:48;;;;;;;13.60;10.37;;;11.50;99.90;;;;;;5041837;28;20464;-82
2023/04/01 13:22:21;;;;;;;13.03;9.80;;;11.40;99.90;;;;;;5024556;28;20969;-81
2023/04/01 13:24:54;;;;;;;9.57;7.70;;;11.40;99.90;;;;;;5043009;28;20449;-82
2023/04/01 13:27:30;;;;;;;11.80;8.80;;;11.40;99.90;;;;;;5041490;28;20491;-82
2023/04/01 13:30:13;;;;;;;9.50;8.50;;;11.30;99.90;;;;;;5036970;28;20469;-82
2023/04/01 13:32:48;;;;;;;10.57;8.40;;;11.40;99.90;;;;;;5026785;28;20508;-81
2023/04/01 13:35:41;;;;;;;10.97;9.10;;;11.60;99.90;;;;;;5041851;28;20429;-81
2023/04/01 13:38:35;;;;;;;8.57;7.57;;;11.60;99.90;;;;;;5041060;28;20444;-83
2023/04/01 13:41:10;;;;;;;7.60;6.87;;;11.60;99.90;;;;;;5041587;28;20673;-81